Plymouth Peak Pro Challenge - Trainer 40 Miles

Station: Trainer 40 Miles - T Race

Distance: 40 Miles    

Release: 12-Aug-2019 08:00

Weather Release:    Arrival:

Wind at Release:     Wind at Arrival:

Temp at Release: °    Temp at Arrival: °

Lofts: 103

Birds: 583

Clocked: 520

Top Of MALAD PASS
Drops Pos Breeder Pigeon Name Color Sex Ent Arrival Speed To Win Eligible AOCPed
1 Jimmy Zheng Loft - MS 0880-AU19-JIMM BB H 1 08:44:18.70 1588.746 00:00:00 Yes
2 L S U - LA 0241-AU19-LSU BC H 1 08:44:24.10 1585.526 00:00:05 Yes
3 Nick & Sons - WA 19438-AU19-NICK BCSM H 1 08:44:27.50 1583.505 00:00:09 Yes
3 Han Lu - TX 0140-AU19-LU BB H 1 08:44:27.50 1583.505 00:00:09 Yes
5 Flying D Loft - TX 0266-AU19-FLYD Dutch 721/Ba 52 BB C 1 08:44:28.00 1583.208 00:00:09 Yes
6 Fleet Washington - DC 1930-AU19-FLEE BC C 1 08:44:29.20 1582.497 00:00:10 Yes
7 Vincent Rooney - VA 9001-IF19-SEA BLK C 1 08:44:29.80 1582.141 00:00:11 Yes
8 T B Brothers Loft - MS 12707-AU19-JEDD BBSM H 1 08:44:30.30 1581.845 00:00:12 Yes
9 Kolvenbag & Son - PA 1340-IF19-KOLV BC C 1 08:44:32.00 1580.838 00:00:13 Yes
10 Callahan Loft - MO 0928-AU19-IMOI BB C 1 08:44:32.30 1580.661 00:00:14 Yes
11 F & D Lofts - AB 19018-AU19-FDL BB C 1 08:44:32.90 1580.306 00:00:14 Yes
12 P N W Challenge - ID 0514-AU19-IDA “PAIR #J8” BB H 1 08:44:35.30 1578.888 00:00:17 Yes
13 Brook Loft - NC 0627-IF19-CCF BB C 1 08:44:35.90 1578.534 00:00:17 Yes
14 A P C Loft - TX 19205-AU19-APC BBTC H 1 08:44:37.60 1577.532 00:00:19 Yes
15 Brook Loft - NC 0610-IF19-CCF BBTC H 2 08:44:40.00 1576.119 00:00:21 Yes
16 Milo’s Loft - OK 22907-AU19-ARPU Van Reet DC H 1 08:44:40.70 1575.708 00:00:22 Yes
16 Sierra Ranch - CA 0957-AU19-SIER Peak Master BB H 1 08:44:40.70 1575.708 00:00:22 Yes
18 Gold Star Loft - CA 1641-AU19-STON BCWF H 1 08:44:40.80 1575.649 00:00:22 Yes
19 Horse Heaven Hills - OR 25323-AU19-AA BB H 1 08:44:41.10 1575.473 00:00:22 Yes
19 Crazy Als Lofts - CO 5528-AU19-CRAZ BLK C 1 08:44:41.10 1575.473 00:00:22 Yes
21 Highland Loft - NY 9007-AU19-DZ BB C 1 08:44:41.70 1575.120 00:00:23 Yes
22 Nykamp & Salvi - ID 9595-AU19-NYKA H 1 08:44:42.00 1574.944 00:00:23 Yes
23 Skylinerpl.Com - UT 34830-AU19-JEDD "Hope I get Lucky Joe" BB C 1 08:44:42.60 1574.592 00:00:24 Yes
24 L S U - LA 0247-AU19-LSU BC C 2 08:44:43.50 1574.064 00:00:25 Yes
25 Ken Christopher - UT 9273-AU19-GS BB H 1 08:44:43.80 1573.888 00:00:25 Yes
26 Flying D Loft - TX 0245-AU19-FLYD Flyd 743 / Flyd 594 BB H 2 08:44:44.30 1573.595 00:00:26 Yes
27 Da-Dong - WI 1660-AU19-RAC 858-762 BBSP H 1 08:44:44.40 1573.536 00:00:26 Yes
27 A D L Loft - IL 0092-AU19-ADL BBSP H 1 08:44:44.40 1573.536 00:00:26 Yes
29 Portland Loft - OR 0511-AU19-JEDD BB C 1 08:44:44.70 1573.360 00:00:26 Yes
30 Skylinerpl.Com - UT 0191-AU19-UVI "Prince" BB C 2 08:44:45.00 1573.184 00:00:26 Yes
31 Genesis Syndicate Loft - AZ 0725-AU19-GENE BBWF H 1 08:44:45.50 1572.891 00:00:27 Yes
32 Jones Boys - UT 9321-AU19-SLI BNZB H 1 08:44:45.60 1572.833 00:00:27 Yes
32 Genesis Syndicate Loft - AZ 0010-IF19-GENE BCSM H 2 08:44:45.60 1572.833 00:00:27 Yes
34 Kfly Racing Pigeon Loft - ID 19208-AU19-RMR Golden Eagle 8 RC H 1 08:44:45.90 1572.657 00:00:27 Yes
35 Fassio Loft - UT 9215-AU19-SLI Top Freska BB C 1 08:44:47.10 1571.955 00:00:28 Yes
36 Ed Kehl - UT 2009-AU19-WGS DC H 1 08:44:47.40 1571.779 00:00:29 Yes
37 New Era Loft - PA 53102-AU19-ARPU BBSP H 1 08:44:48.00 1571.429 00:00:29 Yes
38 Dennis Martinen - WA 2170-AU19-YAK BCWF H 1 08:44:48.10 1571.370 00:00:29 Yes
39 Baldwin & Tilson - NC 9097-AU19-TENT 4135-6257 DKBB C 1 08:44:48.50 1571.136 00:00:30 Yes
40 Bryan Maier - PA 0311-IF19-MAIE BC H 1 08:44:48.90 1570.903 00:00:30 Yes
41 Eastern Pearl Loft - VA 0553-AU19-EPL 🈚️量553=145x743 BC H 1 08:44:49.20 1570.727 00:00:30 Yes
42 S F L - WV 0096-AU19-SFL Pair 55 BBWF H 1 08:44:49.90 1570.319 00:00:31 Yes
42 Nykamp & Salvi - ID 0355-AU19-RBPC BCSP C 2 08:44:49.90 1570.319 00:00:31 Yes
44 Double D Loft - FL 0331-AU19-FEC Yankee Doodle BC C 1 08:44:50.20 1570.143 00:00:32 Yes
45 Nanez Family Lofts - WI 9068-AU19-NANE BCSP C 1 08:44:50.90 1569.735 00:00:32 Yes
45 Genesis Syndicate Loft - AZ 0026-IF19-GENE BB H 3 08:44:50.90 1569.735 00:00:32 Yes
47 P N W Challenge - ID 0002-AU19-PNWC “PAIR #1” BCWF H 2 08:44:51.30 1569.502 00:00:33 Yes
48 A P C Loft - TX 19108-AU19-APC BB H 2 08:44:51.70 1569.268 00:00:33 Yes
49 Jones Boys - UT 9325-AU19-SLI BB H 2 08:44:52.60 1568.744 00:00:34 Yes
50 Columba Loft - GA 9111-AU19-LYNC 4586 X 5157 BC H 1 08:44:52.90 1568.569 00:00:34 Yes
51 L S U - LA 0291-AU19-LSU GRIZ H 3 08:44:53.30 1568.336 00:00:35 Yes
51 Alan Porter - WI 1008-AU19-RRR BB C 1 08:44:53.30 1568.336 00:00:35 Yes
53 Chai Suen Siu - NY 0585-IF19-SLI LTBC H 1 08:44:53.70 1568.103 00:00:35 Yes
54 Drama Queen Loft - TX 0974-AU19-GCI BB H 1 08:44:53.80 1568.045 00:00:35 Yes
55 Racing Pigeon Digest - MT 1234-AU19-DIGE BC H 1 08:44:54.40 1567.696 00:00:36 Yes
56 Baldwin & Tilson - NC 9058-AU19-TENT 1303-1104 PEN H 2 08:44:54.90 1567.405 00:00:36 Yes
57 Genesis Syndicate Loft - AZ 0733-AU19-GENE BC H 4 08:44:55.00 1567.347 00:00:36 Yes
58 Flying D Loft - TX 0219-AU19-FLYD Laf 921/Flyd 193 BC C 3 08:44:55.30 1567.172 00:00:37 Yes
59 Nanez Family Lofts - WI 9095-AU19-NANE BB H 2 08:44:55.80 1566.882 00:00:37 Yes
60 Baldwin & Tilson - NC 9129-AU19-TENT 17751-8055 BBTC H 3 08:44:56.10 1566.707 00:00:37 Yes
61 Gold Star Loft - CA 1638-AU19-STON BBWF C 2 08:44:56.40 1566.533 00:00:38 Yes
61 Baldwin & Tilson - NC 9037-AU19-TENT 17751-8055 PEN H 4 08:44:56.40 1566.533 00:00:38 Yes
63 Evolution Racing - UT 7708-AU19-OGN BCSM H 1 08:44:56.90 1566.243 00:00:38 Yes
64 Lucky Strike Loft - UT 9196-AU19-GS BB C 1 08:44:57.20 1566.069 00:00:38 Yes
65 A D L Loft - IL 0059-AU19-RRV BCWF C 2 08:44:57.50 1565.894 00:00:39 Yes
66 Alan Porter - WI 1003-AU19-RRR BBSM C 2 08:44:57.60 1565.836 00:00:39 Yes
67 Eastern Pearl Loft - VA 0543-AU19-EPL 🈚️量543=698x945 BBWF H 2 08:44:58.10 1565.546 00:00:39 Yes
67 M & Y Connection - MI 0023-AU19-MY Pencil Klass BBPN C 1 08:44:58.10 1565.546 00:00:39 Yes
69 Brown & Evans - TX 0133-AU19-WF BB H 1 08:44:58.40 1565.372 00:00:40 Yes
70 Han Lu - TX 0139-AU19-LU BBWF H 2 08:44:58.70 1565.198 00:00:40 Yes
71 A P C Loft - TX 19038-AU19-APC BB H 3 08:44:58.80 1565.140 00:00:40 Yes
72 Kolvenbag & Son - PA 0321-IF19-PHX BC H 2 08:44:59.60 1564.676 00:00:41 Yes
73 Wessel Family Lofts - CA 3019-AU19-ARC BB C 1 08:44:59.70 1564.618 00:00:41 Yes
74 Ken Christopher - UT 9269-AU19-GS UNKN H 2 08:45:00.00 1564.444 00:00:41 Yes
74 Skylinerpl.Com - UT 0227-AU19-UVI "Princess" BB H 3 08:45:00.00 1564.444 00:00:41 Yes
76 A D L Loft - IL 0096-AU19-ADL BB H 3 08:45:00.40 1564.213 00:00:42 Yes
76 Ken Christopher - UT 9223-AU19-GS BB C 3 08:45:00.40 1564.213 00:00:42 Yes
78 Horse Heaven Hills - OR 25319-AU19-AA BC H 2 08:45:00.50 1564.155 00:00:42 Yes
79 Lou Pendleton - CO 9809-AU19-FH BB H 1 08:45:01.00 1563.865 00:00:42 Missing
80 A P C Loft - TX 19095-AU19-APC BB H 4 08:45:01.40 1563.634 00:00:43 Yes
80 Ken Christopher - UT 9242-AU19-GS BBSP C 4 08:45:01.40 1563.634 00:00:43 Yes
82 J & M Partridge Loft - CA 1701-AU19-PASO BB H 1 08:45:01.70 1563.460 00:00:43 Yes
83 Bryan Maier - PA 0324-IF19-MAIE BB H 2 08:45:02.30 1563.113 00:00:44 Yes
84 Racing Pigeon Mall - WA 0903-AU19-RPM DC H 1 08:45:02.60 1562.939 00:00:44 Yes
85 Eastern Pearl Loft - VA 0555-AU19-EPL 🈚️量555=403x182 BBWF H 3 08:45:03.10 1562.650 00:00:44 Yes
85 Kolvenbag & Son - PA 1320-IF19-KOLV BCWF H 3 08:45:03.10 1562.650 00:00:44 Yes
87 Fleet Washington - DC 1922-AU19-FLEE BC C 2 08:45:03.40 1562.477 00:00:45 Yes
88 Bieche-Stevenson - CA 9154-AU19-BIEC BC H 1 08:45:03.50 1562.419 00:00:45 Yes
89 G & L Loft - OR 0544-AU19-WPC MLY C 1 08:45:03.80 1562.246 00:00:45 Yes
89 Silicon Valley Syndicates - CA 19051-AU19-SVS BB H 1 08:45:03.80 1562.246 00:00:45 Yes
91 Spring Break Race - UT 20130-AU19-AA BB H 1 08:45:04.30 1561.957 00:00:46 Yes
92 Da-Dong - WI 1607-AU19-RAC 80-364 BBSP H 2 08:45:04.80 1561.668 00:00:46 Yes
92 American Lofts - OR 4663-AU19-CORP BB H 1 08:45:04.80 1561.668 00:00:46 Yes
94 J & M Partridge Loft - CA 1530-AU19-PASO BB H 2 08:45:05.10 1561.495 00:00:46 Yes
95 Damon Raze + Greg Lund - MN 0231-AU19-MYST BB H 1 08:45:05.20 1561.437 00:00:46 Yes
96 M2 Loft - UT 0050-AU19-UVI BB H 1 08:45:05.70 1561.149 00:00:47 Yes
96 A P C Loft - TX 19089-AU19-APC BBSM H 5 08:45:05.70 1561.149 00:00:47 Yes
96 Flying D Loft - TX 0265-AU19-FLYD Dutch 721/ Ba 52 BB C 4 08:45:05.70 1561.149 00:00:47 Yes
96 Mile High - CO 1910-AU19-MILE Norda & The Silver Moon SILV H 1 08:45:05.70 1561.149 00:00:47 Yes
100 A D L Loft - IL 0032-AU19-ADL BB C 4 08:45:06.10 1560.918 00:00:47 Yes

There are 502 bird records

Note: These Race Results are unofficial and subject to change until verified by the Race Committee and declared final.